Heber City, UT

11:21 PM MDT en Octubre 20, 2014 (GMT -0600)
Heber | Change Station
CLOSE
Current Station
Aeropuerto
Location: Heber,
Altura: 5636 ft
Estaciones meteorológicas cercanas

Alt 5636 ft 40.48 °N, 111.43 °W | Updated 6 minutes ago

Parcialmente nublado
Parcialmente nublado
50 ° F
Sensación térmica 50 ° F
N
0
Viento Variable Viento desde Norte

Hoy
Alta -- | Baja -- ° F
--% Posibilidad de precipitaciones
Ayer
Alta -- | Baja -- ° F
Precip. -- pul
7:42 AM 6:38 PM
Creciente menguante, 7% visible
Presión 30.02 pul
Visibilidad 10.0 Millas
Nubes Despejado
Punto de rocío 36 ° F
Humedad 58%
Precipitaciones 0.00 pul
Espesor de la nieve 0 in , 0 in , 0 in
UV 0 de una escala de 12
Polen 2.00 de una escala de 12
Calidad del aire No disponible.
Flu Activity Sporadic
METAR K36U 210515Z AUTO 00000KT 10SM CLR 10/02 A3002 RMK AO2

More Conditions Fewer Conditions

Presión 30.02 pul
Visibilidad 10.0 Millas
Nubes Despejado
Punto de rocío 36 ° F
Humedad 58%
Precipitaciones 0.00 pul
Espesor de la nieve 0 in , 0 in , 0 in
UV 0 de una escala de 12
Polen 2.00 de una escala de 12
Calidad del aire No disponible.
Flu Activity Sporadic
METAR K36U 210515Z AUTO 00000KT 10SM CLR 10/02 A3002 RMK AO2

More Conditions Fewer Conditions

10-Day Weather Forecast

Almanac

Astronomía

Oct. 20, 2014 Salida Puesta
Hora real 7:42 AM MDT 6:38 PM MDT
Crepúsculo civil 7:14 AM MDT 7:05 PM MDT
Crepúsculo náutico 6:42 AM MDT 7:37 PM MDT
Crepúsculo astronómico 6:11 AM MDT 8:09 PM MDT
Luna 4:33 AM MDT (10/20) 5:03 PM MDT (10/20)
Horas de luz 11h 51m
Horas de luz
10h 56m
Tomorrow will be 2m 31s shorter.
Creciente menguante, 7% of the Moon is Illuminated
Oct 21
Creciente menguante
Oct 23
Nueva
Oct 30
Cuarto creciente
Nov 6
Luna llena
Nov 14
Cuarto menguante

Extremos de ayer

Máximos del estado Bajos del estado

Community

WunderPhotos

Upload Photos

1,763,612 ¡fotos cargadas!

Nearby

Grosos de nieve

Estación Profundido Altura
Thaynes Canyon 0 in 9200 ft
Brighton 0 in 8750 ft
Daniels-Strawberry 0 in 8000 ft
Mill-d North 0 in 8960 ft
Cascade Mountain 1 in 7768 ft

Actividad de terremotos

Ciudad Distance Mag. Tiempo y dato
No hay informes recientes de la actividad sísmica.
Magnitud mínima muestra es 2,5.

Temperaturas de aguas costeras

Lugar Temperatura
Sin partes meteorológicos de las estaciones

Estaciones meteorológicas cercanas